American Canyon, CA (94503)

3:09 PM PST on February 08, 2016 (GMT -0800)
South Napa Junction | | Change Station
CLOSE
Current Station
Personal Weather Station
Location: American Canyon, CA
Elevation: 72 ft
Nearby Weather Stations

Elev 72 ft 38.18 °N, 122.25 °W | Updated 7 minutes ago

Clear
Clear
73.9 °F
Feels Like 77 °F
N
7.3
Wind Variable Wind from ESE

Today
High -- | Low -- °F
--% Chance of Precip.
Yesterday
High -- | Low -- °F
Precip. -- in
Pressure 30.13 in
Visibility 10.0 miles
Clouds Clear
Heat Index 77 °F
Dew Point 51 °F
Humidity 45%
Rainfall 0.00 in
Snow Depth Not available.
7:07 AM 5:39 PM
New Moon, 0% visible
METAR KAPC 082254Z 10009KT 10SM CLR 23/10 A3016 RMK AO2 SLP203 T02280100
Pressure 30.13 in
Visibility 10.0 miles
Clouds Clear
Heat Index 77 °F
Dew Point 51 °F
Humidity 45%
Rainfall 0.00 in
Snow Depth Not available.
7:07 AM 5:39 PM
New Moon, 0% visible
METAR KAPC 082254Z 10009KT 10SM CLR 23/10 A3016 RMK AO2 SLP203 T02280100

10-Day Weather Forecast

Almanac

Astronomy

Feb. 08, 2016 Rise Set
Actual Time
Civil Twilight
Nautical Twilight
Astronomical Twilight
Moon
Length of Visible Light
Length of Day
Tomorrow will be .
, % of the Moon is Illuminated

Today's Extremes

State Highs State Lows

Community

WunderPhotos

Upload Photos

1,891,523 photos uploaded!

WunderBlog® & News

Nearby

Air Quality

  Air Quality AQ Index Pollutant
Not available.

Snow Depth

Station Depth Elevation

Earthquake Activity

City Distance Mag. Time & Date
Minimum magnitude displayed is 2.5.

Coastal Water Temperatures

Place Temperature

Stations

Nearby Weather Stations

Station Location Temp. Windchill Dew Point Humidity Wind Precip. Elev Updated Type
                   

Watches & Warnings

There are currently no watches in effect.